sensor_id;sensor_type;location;lat;lon;timestamp;P1;durP1;ratioP1;P2;durP2;ratioP2
22191;SDS011;11261;52.456;10.850;2024-03-02T00:00:56;20.90;;;11.10;;
22191;SDS011;11261;52.456;10.850;2024-03-02T00:03:24;22.48;;;11.63;;
22191;SDS011;11261;52.456;10.850;2024-03-02T00:05:53;20.17;;;10.23;;
22191;SDS011;11261;52.456;10.850;2024-03-02T00:08:23;20.00;;;10.35;;
22191;SDS011;11261;52.456;10.850;2024-03-02T00:10:57;20.10;;;10.82;;
22191;SDS011;11261;52.456;10.850;2024-03-02T00:13:26;19.40;;;10.52;;
22191;SDS011;11261;52.456;10.850;2024-03-02T00:15:56;19.48;;;10.80;;
22191;SDS011;11261;52.456;10.850;2024-03-02T00:18:26;18.60;;;9.70;;
22191;SDS011;11261;52.456;10.850;2024-03-02T00:20:55;20.55;;;9.98;;
22191;SDS011;11261;52.456;10.850;2024-03-02T00:23:24;17.02;;;9.52;;
22191;SDS011;11261;52.456;10.850;2024-03-02T00:25:55;14.25;;;8.43;;
22191;SDS011;11261;52.456;10.850;2024-03-02T00:28:25;16.27;;;9.80;;
22191;SDS011;11261;52.456;10.850;2024-03-02T00:30:55;16.63;;;9.98;;
22191;SDS011;11261;52.456;10.850;2024-03-02T00:33:26;19.80;;;9.55;;
22191;SDS011;11261;52.456;10.850;2024-03-02T00:35:55;18.25;;;10.02;;
22191;SDS011;11261;52.456;10.850;2024-03-02T00:38:24;18.63;;;10.23;;
22191;SDS011;11261;52.456;10.850;2024-03-02T00:40:52;21.05;;;11.43;;
22191;SDS011;11261;52.456;10.850;2024-03-02T00:46:15;20.02;;;11.13;;
22191;SDS011;11261;52.456;10.850;2024-03-02T00:48:48;20.85;;;11.50;;
22191;SDS011;11261;52.456;10.850;2024-03-02T00:51:17;21.85;;;11.23;;
22191;SDS011;11261;52.456;10.850;2024-03-02T00:53:45;21.42;;;11.45;;
22191;SDS011;11261;52.456;10.850;2024-03-02T00:56:14;19.55;;;11.23;;
22191;SDS011;11261;52.456;10.850;2024-03-02T00:58:42;22.00;;;11.82;;
22191;SDS011;11261;52.456;10.850;2024-03-02T01:01:11;24.40;;;11.25;;
22191;SDS011;11261;52.456;10.850;2024-03-02T01:03:41;19.52;;;10.55;;
22191;SDS011;11261;52.456;10.850;2024-03-02T01:06:10;23.27;;;11.88;;
22191;SDS011;11261;52.456;10.850;2024-03-02T01:08:39;22.83;;;11.18;;
22191;SDS011;11261;52.456;10.850;2024-03-02T01:11:08;26.45;;;13.18;;
22191;SDS011;11261;52.456;10.850;2024-03-02T01:13:36;22.13;;;12.65;;
22191;SDS011;11261;52.456;10.850;2024-03-02T01:16:05;23.25;;;12.40;;
22191;SDS011;11261;52.456;10.850;2024-03-02T01:18:33;22.15;;;11.68;;
22191;SDS011;11261;52.456;10.850;2024-03-02T01:21:03;23.23;;;13.07;;
22191;SDS011;11261;52.456;10.850;2024-03-02T01:23:32;23.90;;;12.15;;
22191;SDS011;11261;52.456;10.850;2024-03-02T01:26:01;20.35;;;12.07;;
22191;SDS011;11261;52.456;10.850;2024-03-02T01:28:30;26.00;;;12.93;;
22191;SDS011;11261;52.456;10.850;2024-03-02T01:30:59;23.88;;;11.75;;
22191;SDS011;11261;52.456;10.850;2024-03-02T01:33:28;23.25;;;11.65;;
22191;SDS011;11261;52.456;10.850;2024-03-02T01:35:57;21.88;;;11.63;;
22191;SDS011;11261;52.456;10.850;2024-03-02T01:38:27;19.35;;;11.07;;
22191;SDS011;11261;52.456;10.850;2024-03-02T01:40:56;22.20;;;11.43;;
22191;SDS011;11261;52.456;10.850;2024-03-02T01:43:24;21.33;;;12.02;;
22191;SDS011;11261;52.456;10.850;2024-03-02T01:45:54;17.30;;;10.68;;
22191;SDS011;11261;52.456;10.850;2024-03-02T01:48:24;23.50;;;11.80;;
22191;SDS011;11261;52.456;10.850;2024-03-02T01:50:52;25.13;;;10.77;;
22191;SDS011;11261;52.456;10.850;2024-03-02T01:53:21;22.27;;;11.68;;
22191;SDS011;11261;52.456;10.850;2024-03-02T01:55:52;21.98;;;10.50;;
22191;SDS011;11261;52.456;10.850;2024-03-02T01:58:20;18.83;;;10.48;;
22191;SDS011;11261;52.456;10.850;2024-03-02T02:00:49;20.33;;;10.30;;
22191;SDS011;11261;52.456;10.850;2024-03-02T02:03:18;22.67;;;10.95;;
22191;SDS011;11261;52.456;10.850;2024-03-02T02:05:46;22.38;;;10.77;;
22191;SDS011;11261;52.456;10.850;2024-03-02T02:08:15;19.70;;;10.63;;
22191;SDS011;11261;52.456;10.850;2024-03-02T02:10:44;23.02;;;11.00;;
22191;SDS011;11261;52.456;10.850;2024-03-02T02:13:14;25.48;;;13.30;;
22191;SDS011;11261;52.456;10.850;2024-03-02T02:15:42;23.17;;;12.43;;
22191;SDS011;11261;52.456;10.850;2024-03-02T02:18:11;27.92;;;13.85;;
22191;SDS011;11261;52.456;10.850;2024-03-02T02:20:40;29.10;;;14.25;;
22191;SDS011;11261;52.456;10.850;2024-03-02T02:23:10;27.63;;;14.02;;
22191;SDS011;11261;52.456;10.850;2024-03-02T02:25:40;26.15;;;14.30;;
22191;SDS011;11261;52.456;10.850;2024-03-02T02:28:09;27.67;;;13.38;;
22191;SDS011;11261;52.456;10.850;2024-03-02T02:30:37;26.58;;;13.43;;
22191;SDS011;11261;52.456;10.850;2024-03-02T02:33:06;28.25;;;13.90;;
22191;SDS011;11261;52.456;10.850;2024-03-02T02:35:34;23.00;;;12.40;;
22191;SDS011;11261;52.456;10.850;2024-03-02T02:38:03;24.17;;;13.50;;
22191;SDS011;11261;52.456;10.850;2024-03-02T02:40:34;30.95;;;14.25;;
22191;SDS011;11261;52.456;10.850;2024-03-02T02:43:03;28.70;;;13.27;;
22191;SDS011;11261;52.456;10.850;2024-03-02T02:45:33;27.95;;;13.95;;
22191;SDS011;11261;52.456;10.850;2024-03-02T02:48:02;31.77;;;15.77;;
22191;SDS011;11261;52.456;10.850;2024-03-02T02:50:30;23.52;;;13.05;;
22191;SDS011;11261;52.456;10.850;2024-03-02T02:52:59;23.73;;;12.57;;
22191;SDS011;11261;52.456;10.850;2024-03-02T02:55:28;27.00;;;12.50;;
22191;SDS011;11261;52.456;10.850;2024-03-02T02:57:58;31.55;;;15.20;;
22191;SDS011;11261;52.456;10.850;2024-03-02T03:00:26;30.73;;;14.77;;
22191;SDS011;11261;52.456;10.850;2024-03-02T03:02:55;29.13;;;14.98;;
22191;SDS011;11261;52.456;10.850;2024-03-02T03:05:23;31.42;;;16.20;;
22191;SDS011;11261;52.456;10.850;2024-03-02T03:07:52;33.83;;;15.38;;
22191;SDS011;11261;52.456;10.850;2024-03-02T03:10:20;32.10;;;17.08;;
22191;SDS011;11261;52.456;10.850;2024-03-02T03:12:50;28.88;;;14.73;;
22191;SDS011;11261;52.456;10.850;2024-03-02T03:15:20;36.20;;;15.90;;
22191;SDS011;11261;52.456;10.850;2024-03-02T03:17:48;35.08;;;16.83;;
22191;SDS011;11261;52.456;10.850;2024-03-02T03:20:17;36.58;;;17.88;;
22191;SDS011;11261;52.456;10.850;2024-03-02T03:22:48;32.40;;;15.77;;
22191;SDS011;11261;52.456;10.850;2024-03-02T03:25:16;31.02;;;16.45;;
22191;SDS011;11261;52.456;10.850;2024-03-02T03:27:45;35.13;;;16.17;;
22191;SDS011;11261;52.456;10.850;2024-03-02T03:30:14;30.70;;;16.73;;
22191;SDS011;11261;52.456;10.850;2024-03-02T03:32:44;33.72;;;16.65;;
22191;SDS011;11261;52.456;10.850;2024-03-02T03:35:14;30.15;;;16.45;;
22191;SDS011;11261;52.456;10.850;2024-03-02T03:37:43;34.83;;;16.73;;
22191;SDS011;11261;52.456;10.850;2024-03-02T03:40:11;28.63;;;14.63;;
22191;SDS011;11261;52.456;10.850;2024-03-02T03:42:41;32.28;;;15.85;;
22191;SDS011;11261;52.456;10.850;2024-03-02T03:45:11;33.33;;;15.80;;
22191;SDS011;11261;52.456;10.850;2024-03-02T03:47:39;31.88;;;16.13;;
22191;SDS011;11261;52.456;10.850;2024-03-02T03:50:09;35.72;;;16.40;;
22191;SDS011;11261;52.456;10.850;2024-03-02T03:52:38;32.53;;;16.15;;
22191;SDS011;11261;52.456;10.850;2024-03-02T03:55:07;30.70;;;16.63;;
22191;SDS011;11261;52.456;10.850;2024-03-02T03:57:36;29.80;;;15.48;;
22191;SDS011;11261;52.456;10.850;2024-03-02T04:00:05;34.17;;;16.42;;
22191;SDS011;11261;52.456;10.850;2024-03-02T04:02:36;35.40;;;16.02;;
22191;SDS011;11261;52.456;10.850;2024-03-02T04:05:05;36.20;;;17.60;;
22191;SDS011;11261;52.456;10.850;2024-03-02T04:07:37;28.90;;;15.50;;
22191;SDS011;11261;52.456;10.850;2024-03-02T04:10:07;34.05;;;16.00;;
22191;SDS011;11261;52.456;10.850;2024-03-02T04:12:37;33.40;;;15.70;;
22191;SDS011;11261;52.456;10.850;2024-03-02T04:15:05;32.58;;;16.60;;
22191;SDS011;11261;52.456;10.850;2024-03-02T04:17:34;34.63;;;16.38;;
22191;SDS011;11261;52.456;10.850;2024-03-02T04:20:03;35.65;;;16.58;;
22191;SDS011;11261;52.456;10.850;2024-03-02T04:22:33;35.75;;;17.08;;
22191;SDS011;11261;52.456;10.850;2024-03-02T04:25:04;36.38;;;16.65;;
22191;SDS011;11261;52.456;10.850;2024-03-02T04:27:34;28.77;;;15.35;;
22191;SDS011;11261;52.456;10.850;2024-03-02T04:30:03;33.25;;;16.77;;
22191;SDS011;11261;52.456;10.850;2024-03-02T04:32:33;35.72;;;17.05;;
22191;SDS011;11261;52.456;10.850;2024-03-02T04:35:03;35.67;;;16.77;;
22191;SDS011;11261;52.456;10.850;2024-03-02T04:37:33;31.90;;;16.20;;
22191;SDS011;11261;52.456;10.850;2024-03-02T04:40:04;35.95;;;17.98;;
22191;SDS011;11261;52.456;10.850;2024-03-02T04:42:34;36.13;;;18.00;;
22191;SDS011;11261;52.456;10.850;2024-03-02T04:45:03;39.60;;;18.70;;
22191;SDS011;11261;52.456;10.850;2024-03-02T04:47:32;38.90;;;18.98;;
22191;SDS011;11261;52.456;10.850;2024-03-02T04:50:00;33.13;;;17.73;;
22191;SDS011;11261;52.456;10.850;2024-03-02T04:52:29;34.88;;;17.42;;
22191;SDS011;11261;52.456;10.850;2024-03-02T04:54:58;34.28;;;17.05;;
22191;SDS011;11261;52.456;10.850;2024-03-02T04:58:03;35.97;;;17.92;;
22191;SDS011;11261;52.456;10.850;2024-03-02T05:00:32;35.38;;;17.65;;
22191;SDS011;11261;52.456;10.850;2024-03-02T05:03:01;32.55;;;17.90;;
22191;SDS011;11261;52.456;10.850;2024-03-02T05:05:29;33.88;;;16.90;;
22191;SDS011;11261;52.456;10.850;2024-03-02T05:07:58;32.38;;;16.40;;
22191;SDS011;11261;52.456;10.850;2024-03-02T05:10:26;27.10;;;15.35;;
22191;SDS011;11261;52.456;10.850;2024-03-02T05:12:56;30.67;;;15.00;;
22191;SDS011;11261;52.456;10.850;2024-03-02T05:15:27;29.92;;;15.82;;
22191;SDS011;11261;52.456;10.850;2024-03-02T05:17:56;30.10;;;14.80;;
22191;SDS011;11261;52.456;10.850;2024-03-02T05:20:26;28.77;;;14.95;;
22191;SDS011;11261;52.456;10.850;2024-03-02T05:22:55;33.38;;;17.92;;
22191;SDS011;11261;52.456;10.850;2024-03-02T05:25:23;31.60;;;17.33;;
22191;SDS011;11261;52.456;10.850;2024-03-02T05:27:52;35.05;;;18.17;;
22191;SDS011;11261;52.456;10.850;2024-03-02T05:30:20;40.00;;;17.45;;
22191;SDS011;11261;52.456;10.850;2024-03-02T05:32:51;40.05;;;18.88;;
22191;SDS011;11261;52.456;10.850;2024-03-02T05:35:19;31.65;;;16.10;;
22191;SDS011;11261;52.456;10.850;2024-03-02T05:37:48;34.80;;;16.85;;
22191;SDS011;11261;52.456;10.850;2024-03-02T05:40:17;35.85;;;17.58;;
22191;SDS011;11261;52.456;10.850;2024-03-02T05:42:48;34.80;;;18.15;;
22191;SDS011;11261;52.456;10.850;2024-03-02T05:45:17;33.50;;;17.00;;
22191;SDS011;11261;52.456;10.850;2024-03-02T05:47:45;32.08;;;17.17;;
22191;SDS011;11261;52.456;10.850;2024-03-02T05:50:15;38.22;;;20.10;;
22191;SDS011;11261;52.456;10.850;2024-03-02T05:52:46;34.20;;;17.25;;
22191;SDS011;11261;52.456;10.850;2024-03-02T05:55:14;34.70;;;16.88;;
22191;SDS011;11261;52.456;10.850;2024-03-02T05:57:43;33.28;;;16.58;;
22191;SDS011;11261;52.456;10.850;2024-03-02T06:00:29;35.97;;;16.65;;
22191;SDS011;11261;52.456;10.850;2024-03-02T06:02:58;30.88;;;16.45;;
22191;SDS011;11261;52.456;10.850;2024-03-02T06:05:28;34.33;;;16.73;;
22191;SDS011;11261;52.456;10.850;2024-03-02T06:07:57;33.85;;;16.95;;
22191;SDS011;11261;52.456;10.850;2024-03-02T06:10:25;35.75;;;17.05;;
22191;SDS011;11261;52.456;10.850;2024-03-02T06:12:54;35.10;;;18.13;;
22191;SDS011;11261;52.456;10.850;2024-03-02T06:15:23;34.53;;;17.63;;
22191;SDS011;11261;52.456;10.850;2024-03-02T06:17:51;35.28;;;16.90;;
22191;SDS011;11261;52.456;10.850;2024-03-02T06:20:20;31.00;;;16.33;;
22191;SDS011;11261;52.456;10.850;2024-03-02T06:22:50;33.65;;;17.48;;
22191;SDS011;11261;52.456;10.850;2024-03-02T06:25:19;33.15;;;17.60;;
22191;SDS011;11261;52.456;10.850;2024-03-02T06:27:48;33.33;;;16.35;;
22191;SDS011;11261;52.456;10.850;2024-03-02T06:30:17;33.03;;;16.67;;
22191;SDS011;11261;52.456;10.850;2024-03-02T06:32:45;31.88;;;16.08;;
22191;SDS011;11261;52.456;10.850;2024-03-02T06:35:14;25.83;;;14.52;;
22191;SDS011;11261;52.456;10.850;2024-03-02T06:37:43;30.17;;;14.68;;
22191;SDS011;11261;52.456;10.850;2024-03-02T06:40:13;28.52;;;15.35;;
22191;SDS011;11261;52.456;10.850;2024-03-02T06:42:42;31.15;;;16.02;;
22191;SDS011;11261;52.456;10.850;2024-03-02T06:45:11;32.08;;;16.45;;
22191;SDS011;11261;52.456;10.850;2024-03-02T06:47:39;30.45;;;17.40;;
22191;SDS011;11261;52.456;10.850;2024-03-02T06:50:08;30.50;;;17.45;;
22191;SDS011;11261;52.456;10.850;2024-03-02T06:52:37;34.78;;;18.25;;
22191;SDS011;11261;52.456;10.850;2024-03-02T06:55:06;32.08;;;16.50;;
22191;SDS011;11261;52.456;10.850;2024-03-02T06:57:37;29.15;;;15.93;;
22191;SDS011;11261;52.456;10.850;2024-03-02T07:00:06;30.98;;;15.02;;
22191;SDS011;11261;52.456;10.850;2024-03-02T07:02:35;30.70;;;16.23;;
22191;SDS011;11261;52.456;10.850;2024-03-02T07:05:04;35.85;;;18.13;;
22191;SDS011;11261;52.456;10.850;2024-03-02T07:07:33;36.95;;;18.00;;
22191;SDS011;11261;52.456;10.850;2024-03-02T07:10:03;35.80;;;18.73;;
22191;SDS011;11261;52.456;10.850;2024-03-02T07:12:32;34.00;;;17.05;;
22191;SDS011;11261;52.456;10.850;2024-03-02T07:15:02;36.72;;;18.30;;
22191;SDS011;11261;52.456;10.850;2024-03-02T07:18:09;38.75;;;20.17;;
22191;SDS011;11261;52.456;10.850;2024-03-02T07:20:37;32.72;;;17.63;;
22191;SDS011;11261;52.456;10.850;2024-03-02T07:23:06;32.08;;;17.88;;
22191;SDS011;11261;52.456;10.850;2024-03-02T07:25:35;35.75;;;18.83;;
22191;SDS011;11261;52.456;10.850;2024-03-02T07:28:08;33.60;;;16.92;;
22191;SDS011;11261;52.456;10.850;2024-03-02T07:30:38;29.77;;;16.73;;
22191;SDS011;11261;52.456;10.850;2024-03-02T07:33:06;31.08;;;15.98;;
22191;SDS011;11261;52.456;10.850;2024-03-02T07:35:35;30.35;;;16.15;;
22191;SDS011;11261;52.456;10.850;2024-03-02T07:38:04;29.27;;;16.23;;
22191;SDS011;11261;52.456;10.850;2024-03-02T07:40:32;29.10;;;16.33;;
22191;SDS011;11261;52.456;10.850;2024-03-02T07:43:01;31.20;;;15.85;;
22191;SDS011;11261;52.456;10.850;2024-03-02T07:45:30;31.08;;;16.80;;
22191;SDS011;11261;52.456;10.850;2024-03-02T07:48:00;31.15;;;16.27;;
22191;SDS011;11261;52.456;10.850;2024-03-02T07:50:30;32.85;;;17.77;;
22191;SDS011;11261;52.456;10.850;2024-03-02T07:53:01;30.45;;;16.00;;
22191;SDS011;11261;52.456;10.850;2024-03-02T07:55:30;30.10;;;15.98;;
22191;SDS011;11261;52.456;10.850;2024-03-02T07:57:58;33.13;;;16.25;;
22191;SDS011;11261;52.456;10.850;2024-03-02T08:00:27;29.40;;;15.40;;
22191;SDS011;11261;52.456;10.850;2024-03-02T08:02:56;28.45;;;16.33;;
22191;SDS011;11261;52.456;10.850;2024-03-02T08:05:25;28.13;;;15.82;;
22191;SDS011;11261;52.456;10.850;2024-03-02T08:07:55;31.67;;;16.30;;
22191;SDS011;11261;52.456;10.850;2024-03-02T08:10:24;29.35;;;15.07;;
22191;SDS011;11261;52.456;10.850;2024-03-02T08:12:52;32.17;;;16.20;;
22191;SDS011;11261;52.456;10.850;2024-03-02T08:15:21;29.80;;;15.95;;
22191;SDS011;11261;52.456;10.850;2024-03-02T08:17:50;31.55;;;17.60;;
22191;SDS011;11261;52.456;10.850;2024-03-02T08:20:19;29.13;;;15.45;;
22191;SDS011;11261;52.456;10.850;2024-03-02T08:22:49;29.67;;;15.93;;
22191;SDS011;11261;52.456;10.850;2024-03-02T08:25:17;28.20;;;16.17;;
22191;SDS011;11261;52.456;10.850;2024-03-02T08:27:46;31.13;;;15.55;;
22191;SDS011;11261;52.456;10.850;2024-03-02T08:30:15;26.48;;;14.40;;
22191;SDS011;11261;52.456;10.850;2024-03-02T08:32:44;31.45;;;15.60;;
22191;SDS011;11261;52.456;10.850;2024-03-02T08:35:14;30.10;;;16.02;;
22191;SDS011;11261;52.456;10.850;2024-03-02T08:37:44;28.83;;;15.85;;
22191;SDS011;11261;52.456;10.850;2024-03-02T08:40:14;28.92;;;14.43;;
22191;SDS011;11261;52.456;10.850;2024-03-02T08:42:44;27.83;;;15.07;;
22191;SDS011;11261;52.456;10.850;2024-03-02T08:45:14;29.40;;;15.27;;
22191;SDS011;11261;52.456;10.850;2024-03-02T08:47:43;29.60;;;16.75;;
22191;SDS011;11261;52.456;10.850;2024-03-02T08:50:12;28.23;;;13.98;;
22191;SDS011;11261;52.456;10.850;2024-03-02T08:52:40;29.52;;;15.77;;
22191;SDS011;11261;52.456;10.850;2024-03-02T08:55:09;26.77;;;14.82;;
22191;SDS011;11261;52.456;10.850;2024-03-02T08:57:39;25.13;;;14.35;;
22191;SDS011;11261;52.456;10.850;2024-03-02T09:00:09;23.77;;;14.43;;
22191;SDS011;11261;52.456;10.850;2024-03-02T09:02:37;23.50;;;14.20;;
22191;SDS011;11261;52.456;10.850;2024-03-02T09:05:06;20.80;;;12.27;;
22191;SDS011;11261;52.456;10.850;2024-03-02T09:07:35;22.00;;;13.65;;
22191;SDS011;11261;52.456;10.850;2024-03-02T09:10:05;18.88;;;11.68;;
22191;SDS011;11261;52.456;10.850;2024-03-02T09:12:34;21.80;;;12.43;;
22191;SDS011;11261;52.456;10.850;2024-03-02T09:15:04;18.60;;;10.85;;
22191;SDS011;11261;52.456;10.850;2024-03-02T09:17:33;22.17;;;10.98;;
22191;SDS011;11261;52.456;10.850;2024-03-02T09:20:02;21.25;;;11.77;;
22191;SDS011;11261;52.456;10.850;2024-03-02T09:22:30;23.92;;;12.63;;
22191;SDS011;11261;52.456;10.850;2024-03-02T09:24:59;19.13;;;10.95;;
22191;SDS011;11261;52.456;10.850;2024-03-02T09:27:28;19.27;;;11.77;;
22191;SDS011;11261;52.456;10.850;2024-03-02T09:29:56;18.42;;;13.13;;
22191;SDS011;11261;52.456;10.850;2024-03-02T09:32:27;18.75;;;11.15;;
22191;SDS011;11261;52.456;10.850;2024-03-02T09:34:55;17.98;;;12.95;;
22191;SDS011;11261;52.456;10.850;2024-03-02T09:37:24;19.45;;;10.73;;
22191;SDS011;11261;52.456;10.850;2024-03-02T09:39:53;17.83;;;11.02;;
22191;SDS011;11261;52.456;10.850;2024-03-02T09:42:21;19.00;;;12.13;;
22191;SDS011;11261;52.456;10.850;2024-03-02T09:44:51;16.73;;;9.82;;
22191;SDS011;11261;52.456;10.850;2024-03-02T09:47:20;17.52;;;9.68;;
22191;SDS011;11261;52.456;10.850;2024-03-02T09:49:50;16.48;;;9.85;;
22191;SDS011;11261;52.456;10.850;2024-03-02T09:52:18;14.90;;;9.63;;
22191;SDS011;11261;52.456;10.850;2024-03-02T09:54:47;17.33;;;9.77;;
22191;SDS011;11261;52.456;10.850;2024-03-02T09:57:16;15.68;;;9.98;;
22191;SDS011;11261;52.456;10.850;2024-03-02T09:59:45;15.35;;;9.65;;
22191;SDS011;11261;52.456;10.850;2024-03-02T10:02:13;16.52;;;8.68;;
22191;SDS011;11261;52.456;10.850;2024-03-02T10:04:42;14.55;;;9.50;;
22191;SDS011;11261;52.456;10.850;2024-03-02T10:07:13;14.90;;;9.20;;
22191;SDS011;11261;52.456;10.850;2024-03-02T10:09:42;15.75;;;8.95;;
22191;SDS011;11261;52.456;10.850;2024-03-02T10:12:12;20.20;;;10.57;;
22191;SDS011;11261;52.456;10.850;2024-03-02T10:14:42;16.83;;;10.55;;
22191;SDS011;11261;52.456;10.850;2024-03-02T10:17:11;15.43;;;9.50;;
22191;SDS011;11261;52.456;10.850;2024-03-02T10:19:39;17.42;;;10.02;;
22191;SDS011;11261;52.456;10.850;2024-03-02T10:22:08;17.30;;;10.07;;
22191;SDS011;11261;52.456;10.850;2024-03-02T10:24:40;18.65;;;9.82;;
22191;SDS011;11261;52.456;10.850;2024-03-02T10:27:15;17.60;;;9.43;;
22191;SDS011;11261;52.456;10.850;2024-03-02T10:29:45;17.40;;;11.93;;
22191;SDS011;11261;52.456;10.850;2024-03-02T10:32:14;14.45;;;8.75;;
22191;SDS011;11261;52.456;10.850;2024-03-02T10:34:44;15.70;;;8.80;;
22191;SDS011;11261;52.456;10.850;2024-03-02T10:37:14;13.00;;;8.02;;
22191;SDS011;11261;52.456;10.850;2024-03-02T10:39:45;13.45;;;7.82;;
22191;SDS011;11261;52.456;10.850;2024-03-02T10:42:14;13.00;;;8.23;;
22191;SDS011;11261;52.456;10.850;2024-03-02T10:44:43;15.63;;;8.95;;
22191;SDS011;11261;52.456;10.850;2024-03-02T10:47:13;13.70;;;7.88;;
22191;SDS011;11261;52.456;10.850;2024-03-02T10:49:42;13.60;;;7.25;;
22191;SDS011;11261;52.456;10.850;2024-03-02T10:52:10;13.02;;;8.60;;
22191;SDS011;11261;52.456;10.850;2024-03-02T10:54:39;15.70;;;9.05;;
22191;SDS011;11261;52.456;10.850;2024-03-02T10:57:10;13.10;;;8.55;;
22191;SDS011;11261;52.456;10.850;2024-03-02T10:59:42;13.55;;;7.93;;
22191;SDS011;11261;52.456;10.850;2024-03-02T11:02:13;12.68;;;8.05;;
22191;SDS011;11261;52.456;10.850;2024-03-02T11:04:42;11.93;;;7.45;;
22191;SDS011;11261;52.456;10.850;2024-03-02T11:07:11;14.98;;;7.65;;
22191;SDS011;11261;52.456;10.850;2024-03-02T11:09:40;11.88;;;7.20;;
22191;SDS011;11261;52.456;10.850;2024-03-02T11:12:12;14.57;;;8.27;;
22191;SDS011;11261;52.456;10.850;2024-03-02T11:14:41;11.88;;;7.28;;
22191;SDS011;11261;52.456;10.850;2024-03-02T11:17:10;13.35;;;7.82;;
22191;SDS011;11261;52.456;10.850;2024-03-02T11:19:40;12.25;;;7.68;;
22191;SDS011;11261;52.456;10.850;2024-03-02T11:22:09;13.10;;;7.78;;
22191;SDS011;11261;52.456;10.850;2024-03-02T11:24:38;12.05;;;7.43;;
22191;SDS011;11261;52.456;10.850;2024-03-02T11:27:07;13.15;;;7.72;;
22191;SDS011;11261;52.456;10.850;2024-03-02T11:29:49;13.93;;;7.35;;
22191;SDS011;11261;52.456;10.850;2024-03-02T11:32:20;12.60;;;7.40;;
22191;SDS011;11261;52.456;10.850;2024-03-02T11:34:49;12.73;;;7.68;;
22191;SDS011;11261;52.456;10.850;2024-03-02T11:37:19;12.32;;;7.35;;
22191;SDS011;11261;52.456;10.850;2024-03-02T11:39:49;12.65;;;8.20;;
22191;SDS011;11261;52.456;10.850;2024-03-02T11:42:18;11.98;;;8.00;;
22191;SDS011;11261;52.456;10.850;2024-03-02T11:44:48;13.98;;;7.15;;
22191;SDS011;11261;52.456;10.850;2024-03-02T11:47:17;13.40;;;7.50;;
22191;SDS011;11261;52.456;10.850;2024-03-02T11:49:46;11.93;;;8.38;;
22191;SDS011;11261;52.456;10.850;2024-03-02T11:52:17;11.93;;;6.55;;
22191;SDS011;11261;52.456;10.850;2024-03-02T11:54:47;9.90;;;6.57;;
22191;SDS011;11261;52.456;10.850;2024-03-02T11:57:18;8.82;;;5.40;;
22191;SDS011;11261;52.456;10.850;2024-03-02T11:59:50;9.57;;;5.03;;
22191;SDS011;11261;52.456;10.850;2024-03-02T12:02:19;7.38;;;4.60;;
22191;SDS011;11261;52.456;10.850;2024-03-02T12:04:48;10.38;;;5.47;;
22191;SDS011;11261;52.456;10.850;2024-03-02T12:07:18;8.68;;;5.13;;
22191;SDS011;11261;52.456;10.850;2024-03-02T12:09:48;9.35;;;5.47;;
22191;SDS011;11261;52.456;10.850;2024-03-02T12:12:16;8.93;;;5.55;;
22191;SDS011;11261;52.456;10.850;2024-03-02T12:14:53;8.27;;;5.22;;
22191;SDS011;11261;52.456;10.850;2024-03-02T12:17:22;8.05;;;5.30;;
22191;SDS011;11261;52.456;10.850;2024-03-02T12:19:50;8.95;;;4.93;;
22191;SDS011;11261;52.456;10.850;2024-03-02T12:22:20;2.70;;;1.90;;
22191;SDS011;11261;52.456;10.850;2024-03-02T12:24:49;3.35;;;2.10;;
22191;SDS011;11261;52.456;10.850;2024-03-02T12:27:19;4.72;;;2.58;;
22191;SDS011;11261;52.456;10.850;2024-03-02T12:29:48;4.60;;;1.83;;
22191;SDS011;11261;52.456;10.850;2024-03-02T12:32:18;4.70;;;2.65;;
22191;SDS011;11261;52.456;10.850;2024-03-02T12:34:47;4.00;;;2.17;;
22191;SDS011;11261;52.456;10.850;2024-03-02T12:37:15;5.30;;;2.05;;
22191;SDS011;11261;52.456;10.850;2024-03-02T12:39:44;3.28;;;2.17;;
22191;SDS011;11261;52.456;10.850;2024-03-02T12:42:13;4.60;;;2.83;;
22191;SDS011;11261;52.456;10.850;2024-03-02T12:44:42;5.40;;;3.03;;
22191;SDS011;11261;52.456;10.850;2024-03-02T12:47:11;8.38;;;4.32;;
22191;SDS011;11261;52.456;10.850;2024-03-02T12:49:41;9.07;;;4.70;;
22191;SDS011;11261;52.456;10.850;2024-03-02T12:52:11;7.63;;;4.43;;
22191;SDS011;11261;52.456;10.850;2024-03-02T12:54:40;6.68;;;4.00;;
22191;SDS011;11261;52.456;10.850;2024-03-02T12:57:09;7.10;;;3.67;;
22191;SDS011;11261;52.456;10.850;2024-03-02T12:59:38;8.00;;;4.38;;
22191;SDS011;11261;52.456;10.850;2024-03-02T13:02:06;4.95;;;3.60;;
22191;SDS011;11261;52.456;10.850;2024-03-02T13:04:36;7.68;;;4.75;;
22191;SDS011;11261;52.456;10.850;2024-03-02T13:07:06;6.60;;;3.78;;
22191;SDS011;11261;52.456;10.850;2024-03-02T13:09:35;7.55;;;4.57;;
22191;SDS011;11261;52.456;10.850;2024-03-02T13:12:04;5.90;;;3.60;;
22191;SDS011;11261;52.456;10.850;2024-03-02T13:14:33;6.55;;;4.38;;
22191;SDS011;11261;52.456;10.850;2024-03-02T13:17:02;6.38;;;4.00;;
22191;SDS011;11261;52.456;10.850;2024-03-02T13:19:32;7.22;;;4.15;;
22191;SDS011;11261;52.456;10.850;2024-03-02T13:22:00;6.60;;;4.38;;
22191;SDS011;11261;52.456;10.850;2024-03-02T13:24:31;7.13;;;4.80;;
22191;SDS011;11261;52.456;10.850;2024-03-02T13:27:00;8.00;;;3.92;;
22191;SDS011;11261;52.456;10.850;2024-03-02T13:29:30;6.63;;;4.20;;
22191;SDS011;11261;52.456;10.850;2024-03-02T13:32:00;8.65;;;4.00;;
22191;SDS011;11261;52.456;10.850;2024-03-02T13:34:28;7.38;;;4.60;;
22191;SDS011;11261;52.456;10.850;2024-03-02T13:36:57;7.32;;;4.88;;
22191;SDS011;11261;52.456;10.850;2024-03-02T13:39:27;8.57;;;4.13;;
22191;SDS011;11261;52.456;10.850;2024-03-02T13:41:59;6.82;;;4.20;;
22191;SDS011;11261;52.456;10.850;2024-03-02T13:44:30;6.55;;;3.90;;
22191;SDS011;11261;52.456;10.850;2024-03-02T13:46:59;7.90;;;4.22;;
22191;SDS011;11261;52.456;10.850;2024-03-02T13:49:28;8.40;;;4.60;;
22191;SDS011;11261;52.456;10.850;2024-03-02T13:52:02;7.65;;;4.13;;
22191;SDS011;11261;52.456;10.850;2024-03-02T13:54:37;8.40;;;4.30;;
22191;SDS011;11261;52.456;10.850;2024-03-02T13:57:08;5.88;;;3.88;;
22191;SDS011;11261;52.456;10.850;2024-03-02T13:59:37;34.15;;;20.55;;
22191;SDS011;11261;52.456;10.850;2024-03-02T14:02:06;12.75;;;7.43;;
22191;SDS011;11261;52.456;10.850;2024-03-02T14:04:35;9.13;;;4.82;;
22191;SDS011;11261;52.456;10.850;2024-03-02T14:07:04;7.93;;;5.30;;
22191;SDS011;11261;52.456;10.850;2024-03-02T14:09:35;9.25;;;5.47;;
22191;SDS011;11261;52.456;10.850;2024-03-02T14:12:04;9.90;;;4.78;;
22191;SDS011;11261;52.456;10.850;2024-03-02T14:14:34;8.77;;;4.78;;
22191;SDS011;11261;52.456;10.850;2024-03-02T14:17:03;9.88;;;6.15;;
22191;SDS011;11261;52.456;10.850;2024-03-02T14:19:33;10.00;;;6.13;;
22191;SDS011;11261;52.456;10.850;2024-03-02T14:22:02;9.63;;;5.65;;
22191;SDS011;11261;52.456;10.850;2024-03-02T14:24:32;8.95;;;5.43;;
22191;SDS011;11261;52.456;10.850;2024-03-02T14:27:00;10.10;;;6.38;;
22191;SDS011;11261;52.456;10.850;2024-03-02T14:29:47;10.77;;;7.40;;
22191;SDS011;11261;52.456;10.850;2024-03-02T14:32:16;10.15;;;7.22;;